createdAt,value
2019-05-17T00:01:47.686Z,5.22
2019-05-17T00:04:16.474Z,5.83
2019-05-17T00:06:42.764Z,6.58
2019-05-17T00:09:09.317Z,5.75
2019-05-17T00:11:36.762Z,6.37
2019-05-17T00:14:03.484Z,6.65
2019-05-17T00:16:30.007Z,6.22
2019-05-17T00:18:56.877Z,7.30
2019-05-17T00:21:23.769Z,7.17
2019-05-17T00:23:50.388Z,7.33
2019-05-17T00:26:16.937Z,7.95
2019-05-17T00:28:43.477Z,6.90
2019-05-17T00:31:10.079Z,6.53
2019-05-17T00:33:36.818Z,7.10
2019-05-17T00:36:03.572Z,7.00
2019-05-17T00:38:30.182Z,7.15
2019-05-17T00:40:56.752Z,8.23
2019-05-17T00:43:23.283Z,6.85
2019-05-17T00:45:49.820Z,7.55
2019-05-17T00:48:17.203Z,8.55
2019-05-17T00:50:43.889Z,8.38
2019-05-17T00:53:10.416Z,7.55
2019-05-17T00:55:37.013Z,7.95
2019-05-17T00:58:03.814Z,8.48
2019-05-17T01:00:30.443Z,8.58
2019-05-17T01:02:57.425Z,9.25
2019-05-17T01:05:24.313Z,8.73
2019-05-17T01:07:50.845Z,9.78
2019-05-17T01:10:17.504Z,11.10
2019-05-17T01:12:44.049Z,8.65
2019-05-17T01:15:11.899Z,10.35
2019-05-17T01:17:38.424Z,9.15
2019-05-17T01:20:08.804Z,9.18
2019-05-17T01:22:36.739Z,10.38
2019-05-17T01:25:06.491Z,11.08
2019-05-17T01:27:32.999Z,10.03
2019-05-17T01:29:59.551Z,11.48
2019-05-17T01:32:26.677Z,10.80
2019-05-17T01:34:53.333Z,11.05
2019-05-17T01:37:19.945Z,13.15
2019-05-17T01:39:46.865Z,10.45
2019-05-17T01:42:13.512Z,12.35
2019-05-17T01:44:40.332Z,11.45
2019-05-17T01:47:07.434Z,10.98
2019-05-17T01:49:36.337Z,10.90
2019-05-17T01:52:02.852Z,11.83
2019-05-17T01:54:29.390Z,10.72
2019-05-17T01:56:56.666Z,13.10
2019-05-17T01:59:23.644Z,11.20
2019-05-17T02:01:52.121Z,10.18
2019-05-17T02:04:18.653Z,10.03
2019-05-17T02:06:46.699Z,10.55
2019-05-17T02:09:13.534Z,9.08
2019-05-17T02:11:40.186Z,10.08
2019-05-17T02:14:07.066Z,9.35
2019-05-17T02:16:33.696Z,11.45
2019-05-17T02:19:00.254Z,9.85
2019-05-17T02:21:27.476Z,9.63
2019-05-17T02:23:54.338Z,11.45
2019-05-17T02:26:20.887Z,11.38
2019-05-17T02:28:47.476Z,11.40
2019-05-17T02:31:14.205Z,10.25
2019-05-17T02:33:43.090Z,11.40
2019-05-17T02:36:09.178Z,11.57
2019-05-17T02:38:35.703Z,14.03
2019-05-17T02:41:03.447Z,12.73
2019-05-17T02:43:33.134Z,11.53
2019-05-17T02:45:58.641Z,11.90
2019-05-17T02:48:25.196Z,10.75
2019-05-17T02:50:53.156Z,11.18
2019-05-17T02:53:23.006Z,9.98
2019-05-17T02:55:48.559Z,11.75
2019-05-17T02:58:15.140Z,11.35
2019-05-17T03:00:44.342Z,11.80
2019-05-17T03:03:13.221Z,12.80
2019-05-17T03:05:38.685Z,11.33
2019-05-17T03:08:05.223Z,12.60
2019-05-17T03:10:33.515Z,12.50
2019-05-17T03:13:03.631Z,12.70
2019-05-17T03:15:32.174Z,13.10
2019-05-17T03:17:57.867Z,13.68
2019-05-17T03:20:24.401Z,13.93
2019-05-17T03:22:52.525Z,13.32
2019-05-17T03:25:19.384Z,11.78
2019-05-17T03:27:45.933Z,11.68
2019-05-17T03:30:17.153Z,14.25
2019-05-17T03:32:47.334Z,13.45
2019-05-17T03:35:16.763Z,13.30
2019-05-17T03:37:39.223Z,13.98
2019-05-17T03:40:23.316Z,13.13
2019-05-17T03:42:35.066Z,13.35
2019-05-17T03:45:02.992Z,16.60
2019-05-17T03:47:33.174Z,16.95
2019-05-17T03:49:58.451Z,14.98
2019-05-17T03:52:24.971Z,14.80
2019-05-17T03:54:53.214Z,13.53
2019-05-17T03:57:23.622Z,16.85
2019-05-17T03:59:48.396Z,17.45
2019-05-17T04:02:15.044Z,14.83
2019-05-17T04:04:42.866Z,16.07
2019-05-17T04:07:12.556Z,15.25
2019-05-17T04:09:38.096Z,13.85
2019-05-17T04:12:04.650Z,15.58
2019-05-17T04:14:33.588Z,15.78
2019-05-17T04:17:02.872Z,14.95
2019-05-17T04:19:28.221Z,15.93
2019-05-17T04:21:54.932Z,17.42
2019-05-17T04:24:23.084Z,18.75
2019-05-17T04:26:52.440Z,17.65
2019-05-17T04:29:18.324Z,16.55
2019-05-17T04:31:44.903Z,16.48
2019-05-17T04:34:13.529Z,16.82
2019-05-17T04:36:39.898Z,16.30
2019-05-17T04:39:06.792Z,17.02
2019-05-17T04:41:45.072Z,17.02
2019-05-17T04:44:02.704Z,15.70
2019-05-17T04:46:32.422Z,16.70
2019-05-17T04:48:57.957Z,14.58
2019-05-17T04:51:24.491Z,18.77
2019-05-17T04:53:52.965Z,15.93
2019-05-17T04:56:22.517Z,18.17
2019-05-17T04:58:50.201Z,19.73
2019-05-17T05:01:16.479Z,19.48
2019-05-17T05:03:43.310Z,17.48
2019-05-17T05:06:13.065Z,15.63
2019-05-17T05:08:38.277Z,16.73
2019-05-17T05:11:04.797Z,17.35
2019-05-17T05:13:33.408Z,17.82
2019-05-17T05:16:02.734Z,17.12
2019-05-17T05:18:28.403Z,18.25
2019-05-17T05:20:54.877Z,14.63
2019-05-17T05:23:23.808Z,17.32
2019-05-17T05:25:52.105Z,14.28
2019-05-17T05:28:18.871Z,13.65
2019-05-17T05:30:45.516Z,16.85
2019-05-17T05:33:12.939Z,13.98
2019-05-17T05:35:42.201Z,18.25
2019-05-17T05:38:08.164Z,17.20
2019-05-17T05:40:34.750Z,18.05
2019-05-17T05:43:02.293Z,13.83
2019-05-17T05:45:29.075Z,14.80
2019-05-17T05:47:55.588Z,17.52
2019-05-17T05:50:22.202Z,16.90
2019-05-17T05:52:48.742Z,17.20
2019-05-17T05:55:16.294Z,14.73
2019-05-17T05:57:42.829Z,12.43
2019-05-17T06:00:13.088Z,14.35
2019-05-17T06:02:41.857Z,14.50
2019-05-17T06:05:08.689Z,14.18
2019-05-17T06:07:35.394Z,12.65
2019-05-17T06:10:02.949Z,13.00
2019-05-17T06:12:32.096Z,12.18
2019-05-17T06:14:57.932Z,14.10
2019-05-17T06:17:24.470Z,11.88
2019-05-17T06:19:51.749Z,11.65
2019-05-17T06:22:18.676Z,10.72
2019-05-17T06:24:45.293Z,10.90
2019-05-17T06:27:12.338Z,13.45
2019-05-17T06:29:41.369Z,11.97
2019-05-17T06:32:07.442Z,12.88
2019-05-17T06:34:34.049Z,12.10
2019-05-17T06:37:02.231Z,11.38
2019-05-17T06:39:29.040Z,11.18
2019-05-17T06:41:55.540Z,14.55
2019-05-17T06:44:22.131Z,10.08
2019-05-17T06:46:48.662Z,10.28
2019-05-17T06:49:15.197Z,12.00
2019-05-17T06:51:42.696Z,10.60
2019-05-17T06:54:11.848Z,11.68
2019-05-17T06:56:37.855Z,11.90
2019-05-17T06:59:04.392Z,11.95
2019-05-17T07:01:30.934Z,12.43
2019-05-17T07:03:57.459Z,12.43
2019-05-17T07:06:25.942Z,10.72
2019-05-17T07:08:52.473Z,10.40
2019-05-17T07:11:20.995Z,11.38
2019-05-17T07:13:49.503Z,9.00
2019-05-17T07:16:15.889Z,8.88
2019-05-17T07:18:42.427Z,9.68
2019-05-17T07:21:10.050Z,10.88
2019-05-17T07:23:36.711Z,8.60
2019-05-17T07:26:03.352Z,9.98
2019-05-17T07:28:30.361Z,8.60
2019-05-17T07:30:59.453Z,6.75
2019-05-17T07:33:25.387Z,8.38
2019-05-17T07:35:51.923Z,7.62
2019-05-17T07:38:19.983Z,8.68
2019-05-17T07:40:46.597Z,10.53
2019-05-17T07:43:14.862Z,9.78
2019-05-17T07:45:41.601Z,10.03
2019-05-17T07:48:13.852Z,9.58
2019-05-17T07:50:40.441Z,8.30
2019-05-17T07:53:06.982Z,9.10
2019-05-17T07:55:33.513Z,8.45
2019-05-17T07:58:00.294Z,8.13
2019-05-17T08:00:26.927Z,8.88
2019-05-17T08:02:53.465Z,8.83
2019-05-17T08:05:21.397Z,8.90
2019-05-17T08:07:49.996Z,9.60
2019-05-17T08:10:20.201Z,9.38
2019-05-17T08:12:46.144Z,9.43
2019-05-17T08:15:12.966Z,9.70
2019-05-17T08:17:39.822Z,9.85
2019-05-17T08:20:10.042Z,7.87
2019-05-17T08:22:39.837Z,9.30
2019-05-17T08:25:09.870Z,9.40
2019-05-17T08:27:36.169Z,8.30
2019-05-17T08:30:05.089Z,8.83
2019-05-17T08:32:31.770Z,9.85
2019-05-17T08:35:00.399Z,7.95
2019-05-17T08:37:26.835Z,7.72
2019-05-17T08:39:53.364Z,7.65
2019-05-17T08:42:20.441Z,9.25
2019-05-17T08:44:47.158Z,8.25
2019-05-17T08:47:13.708Z,7.12
2019-05-17T08:49:40.457Z,8.73
2019-05-17T08:52:07.071Z,8.90
2019-05-17T08:54:33.594Z,9.50
2019-05-17T08:57:00.651Z,8.53
2019-05-17T08:59:29.562Z,8.55
2019-05-17T09:01:55.954Z,9.00
2019-05-17T09:04:23.635Z,8.78
2019-05-17T09:06:50.526Z,6.15
2019-05-17T09:09:17.215Z,6.12
2019-05-17T09:11:43.752Z,7.83
2019-05-17T09:14:10.621Z,8.28
2019-05-17T09:16:39.914Z,6.85
2019-05-17T09:19:05.985Z,8.10
2019-05-17T09:21:32.509Z,6.58
2019-05-17T09:23:59.715Z,8.15
2019-05-17T09:26:26.468Z,7.78
2019-05-17T09:28:53.019Z,7.62
2019-05-17T09:31:20.383Z,8.15
2019-05-17T09:33:49.561Z,6.10
2019-05-17T09:36:15.552Z,6.28
2019-05-17T09:38:42.095Z,7.53
2019-05-17T09:41:09.328Z,8.00
2019-05-17T09:43:36.061Z,5.33
2019-05-17T09:46:02.997Z,7.15
2019-05-17T09:48:30.662Z,8.15
2019-05-17T09:50:59.753Z,7.12
2019-05-17T09:53:27.358Z,8.05
2019-05-17T09:55:53.884Z,5.92
2019-05-17T09:58:21.637Z,5.85
2019-05-17T10:00:49.499Z,6.50
2019-05-17T10:03:16.274Z,6.83
2019-05-17T10:05:44.102Z,8.30
2019-05-17T10:08:11.106Z,5.97
2019-05-17T10:10:39.994Z,7.35
2019-05-17T10:13:06.168Z,6.12
2019-05-17T10:15:32.696Z,5.90
2019-05-17T10:18:00.556Z,6.30
2019-05-17T10:20:29.269Z,6.55
2019-05-17T10:22:55.884Z,5.08
2019-05-17T10:25:22.427Z,6.60
2019-05-17T10:27:49.812Z,7.20
2019-05-17T10:30:16.644Z,5.10
2019-05-17T10:32:43.254Z,5.55
2019-05-17T10:35:10.191Z,5.30
2019-05-17T10:37:36.704Z,6.45
2019-05-17T10:40:06.346Z,6.30
2019-05-17T10:42:33.898Z,5.45
2019-05-17T10:45:00.432Z,4.97
2019-05-17T10:47:27.167Z,5.95
2019-05-17T10:49:53.710Z,5.30
2019-05-17T10:52:20.469Z,5.30
2019-05-17T10:54:46.999Z,4.58
2019-05-17T10:57:13.539Z,5.03
2019-05-17T10:59:40.083Z,6.25
2019-05-17T11:02:06.791Z,5.53
2019-05-17T11:04:33.363Z,4.15
2019-05-17T11:06:59.912Z,6.00
2019-05-17T11:09:26.523Z,6.15
2019-05-17T11:11:53.058Z,5.47
2019-05-17T11:14:19.597Z,5.65
2019-05-17T11:16:46.130Z,5.00
2019-05-17T11:19:12.664Z,4.87
2019-05-17T11:21:39.298Z,5.50
2019-05-17T11:24:06.038Z,4.80
2019-05-17T11:26:32.587Z,4.28
2019-05-17T11:28:59.114Z,3.77
2019-05-17T11:31:25.665Z,3.50
2019-05-17T11:33:52.198Z,4.30
2019-05-17T11:36:18.742Z,5.20
2019-05-17T11:38:45.263Z,4.35
2019-05-17T11:41:21.226Z,3.42
2019-05-17T11:43:40.256Z,3.60
2019-05-17T11:46:06.787Z,2.92
2019-05-17T11:48:33.310Z,3.00
2019-05-17T11:50:59.957Z,2.52
2019-05-17T11:53:26.494Z,2.70
2019-05-17T11:55:53.017Z,3.50
2019-05-17T11:58:19.553Z,3.10
2019-05-17T12:00:46.083Z,2.90
2019-05-17T12:03:12.616Z,2.62
2019-05-17T12:05:39.149Z,2.40
2019-05-17T12:08:08.671Z,2.40
2019-05-17T12:10:34.252Z,2.65
2019-05-17T12:13:00.887Z,2.75
2019-05-17T12:15:42.215Z,2.50
2019-05-17T12:17:56.072Z,1.92
2019-05-17T12:20:22.712Z,2.08
2019-05-17T12:22:49.253Z,2.52
2019-05-17T12:25:17.790Z,2.40
2019-05-17T12:27:44.423Z,2.30
2019-05-17T12:30:11.304Z,2.52
2019-05-17T12:32:37.917Z,2.35
2019-05-17T12:35:05.254Z,1.92
2019-05-17T12:37:31.789Z,2.50
2019-05-17T12:39:58.419Z,2.08
2019-05-17T12:42:24.953Z,1.95
2019-05-17T12:44:51.490Z,2.22
2019-05-17T12:47:18.042Z,2.10
2019-05-17T12:49:44.563Z,1.95
2019-05-17T12:52:11.110Z,2.30
2019-05-17T12:54:37.745Z,3.02
2019-05-17T12:57:04.918Z,1.82
2019-05-17T12:59:31.719Z,2.10
2019-05-17T13:01:58.271Z,2.25
2019-05-17T13:04:24.789Z,2.10
2019-05-17T13:06:51.332Z,2.00
2019-05-17T13:09:17.875Z,2.30
2019-05-17T13:11:44.414Z,2.30
2019-05-17T13:14:10.950Z,2.70
2019-05-17T13:16:37.490Z,3.37
2019-05-17T13:19:04.108Z,2.52
2019-05-17T13:21:30.677Z,1.77
2019-05-17T13:23:57.203Z,2.42
2019-05-17T13:26:23.805Z,2.10
2019-05-17T13:28:50.400Z,2.17
2019-05-17T13:31:16.948Z,2.72
2019-05-17T13:33:43.541Z,3.02
2019-05-17T13:36:10.268Z,3.50
2019-05-17T13:38:36.854Z,2.90
2019-05-17T13:41:03.410Z,3.33
2019-05-17T13:43:31.024Z,3.00
2019-05-17T13:45:57.578Z,3.50
2019-05-17T13:48:24.106Z,3.62
2019-05-17T13:50:52.138Z,3.55
2019-05-17T13:53:19.000Z,4.30
2019-05-17T13:55:45.799Z,3.40
2019-05-17T13:58:12.336Z,3.30
2019-05-17T14:00:38.897Z,4.10
2019-05-17T14:03:05.779Z,4.03
2019-05-17T14:05:32.311Z,4.75
2019-05-17T14:07:58.896Z,4.20
2019-05-17T14:10:28.688Z,4.25
2019-05-17T14:12:53.879Z,4.67
2019-05-17T14:15:20.538Z,3.90
2019-05-17T14:17:47.112Z,4.50
2019-05-17T14:20:13.817Z,3.75
2019-05-17T14:22:40.405Z,3.30
2019-05-17T14:25:07.433Z,2.83
2019-05-17T14:27:34.066Z,2.77
2019-05-17T14:30:00.610Z,3.92
2019-05-17T14:32:27.137Z,3.72
2019-05-17T14:34:53.684Z,3.00
2019-05-17T14:37:20.205Z,2.90
2019-05-17T14:39:46.743Z,3.10
2019-05-17T14:42:13.392Z,2.75
2019-05-17T14:44:39.894Z,2.58
2019-05-17T14:47:06.433Z,2.50
2019-05-17T14:49:33.008Z,2.17
2019-05-17T14:51:59.540Z,1.67
2019-05-17T14:54:26.150Z,2.30
2019-05-17T14:56:52.683Z,2.45
2019-05-17T14:59:19.222Z,2.67
2019-05-17T15:01:45.832Z,2.98
2019-05-17T15:04:12.446Z,3.70
2019-05-17T15:06:38.981Z,2.95
2019-05-17T15:09:05.628Z,2.50
2019-05-17T15:11:32.208Z,2.47
2019-05-17T15:13:58.863Z,2.30
2019-05-17T15:16:25.692Z,2.65
2019-05-17T15:18:52.316Z,2.62
2019-05-17T15:21:18.846Z,3.87
2019-05-17T15:23:45.478Z,3.42
2019-05-17T15:26:12.002Z,4.95
2019-05-17T15:28:38.542Z,3.60
2019-05-17T15:31:05.239Z,3.35
2019-05-17T15:33:31.776Z,4.22
2019-05-17T15:35:58.293Z,3.45
2019-05-17T15:38:24.888Z,3.60
2019-05-17T15:40:51.424Z,3.42
2019-05-17T15:43:17.951Z,3.08
2019-05-17T15:45:44.492Z,2.83
2019-05-17T15:48:11.078Z,2.90
2019-05-17T15:50:37.692Z,2.77
2019-05-17T15:53:04.229Z,2.50
2019-05-17T15:55:30.841Z,2.08
2019-05-17T15:57:57.367Z,2.10
2019-05-17T16:00:24.981Z,2.02
2019-05-17T16:02:51.634Z,2.02
2019-05-17T16:05:18.266Z,1.82
2019-05-17T16:07:44.850Z,2.10
2019-05-17T16:10:12.991Z,1.62
2019-05-17T16:12:40.552Z,1.60
2019-05-17T16:15:07.894Z,1.70
2019-05-17T16:17:34.411Z,1.45
2019-05-17T16:20:02.447Z,1.50
2019-05-17T16:22:29.020Z,1.57
2019-05-17T16:24:55.599Z,1.47
2019-05-17T16:27:22.114Z,1.60
2019-05-17T16:29:48.655Z,1.67
2019-05-17T16:32:15.525Z,1.40
2019-05-17T16:34:42.121Z,1.30
2019-05-17T16:37:09.694Z,1.37
2019-05-17T16:39:36.234Z,1.50
2019-05-17T16:42:03.886Z,1.40
2019-05-17T16:44:30.416Z,1.77
2019-05-17T16:46:56.969Z,1.52
2019-05-17T16:49:23.507Z,1.55
2019-05-17T16:51:50.056Z,1.67
2019-05-17T16:54:16.587Z,1.22
2019-05-17T16:56:43.123Z,1.70
2019-05-17T16:59:09.785Z,1.50
2019-05-17T17:01:36.311Z,1.62
2019-05-17T17:04:03.741Z,1.72
2019-05-17T17:06:30.282Z,1.70
2019-05-17T17:08:56.841Z,1.70
2019-05-17T17:11:23.405Z,1.42
2019-05-17T17:13:50.062Z,1.52
2019-05-17T17:16:16.596Z,1.45
2019-05-17T17:18:43.207Z,1.57
2019-05-17T17:21:09.826Z,1.20
2019-05-17T17:23:36.347Z,1.60
2019-05-17T17:26:03.366Z,1.40
2019-05-17T17:28:29.880Z,1.75
2019-05-17T17:30:56.432Z,1.52
2019-05-17T17:33:22.975Z,1.72
2019-05-17T17:35:49.518Z,1.70
2019-05-17T17:38:16.042Z,2.30
2019-05-17T17:40:42.696Z,2.75
2019-05-17T17:43:10.124Z,7.15
2019-05-17T17:45:36.679Z,7.80
2019-05-17T17:48:03.291Z,5.10
2019-05-17T17:50:31.894Z,4.78
2019-05-17T17:52:58.508Z,9.10
2019-05-17T17:55:25.054Z,7.12
2019-05-17T17:57:51.589Z,7.50
2019-05-17T18:00:20.345Z,10.65
2019-05-17T18:02:48.065Z,7.67
2019-05-17T18:05:15.098Z,8.63
2019-05-17T18:07:41.653Z,5.42
2019-05-17T18:10:09.191Z,4.03
2019-05-17T18:12:35.737Z,4.25
2019-05-17T18:15:06.565Z,3.75
2019-05-17T18:17:39.250Z,3.20
2019-05-17T18:20:03.445Z,2.85
2019-05-17T18:22:30.149Z,2.37
2019-05-17T18:24:56.760Z,2.83
2019-05-17T18:27:23.298Z,2.55
2019-05-17T18:29:51.917Z,2.98
2019-05-17T18:32:18.483Z,3.65
2019-05-17T18:34:45.018Z,2.90
2019-05-17T18:37:12.653Z,2.67
2019-05-17T18:39:39.171Z,2.58
2019-05-17T18:42:05.859Z,2.50
2019-05-17T18:44:32.463Z,2.55
2019-05-17T18:46:59.098Z,2.20
2019-05-17T18:49:25.645Z,2.00
2019-05-17T18:51:52.184Z,2.22
2019-05-17T18:54:19.651Z,2.30
2019-05-17T18:56:46.179Z,2.55
2019-05-17T18:59:12.701Z,2.12
2019-05-17T19:01:39.322Z,2.02
2019-05-17T19:04:05.857Z,2.17
2019-05-17T19:06:32.396Z,2.00
2019-05-17T19:08:59.092Z,2.15
2019-05-17T19:11:25.647Z,2.02
2019-05-17T19:13:52.167Z,2.22
2019-05-17T19:16:18.820Z,2.00
2019-05-17T19:18:45.357Z,2.17
2019-05-17T19:21:11.895Z,2.22
2019-05-17T19:23:38.423Z,2.00
2019-05-17T19:26:05.085Z,1.90
2019-05-17T19:28:31.616Z,2.08
2019-05-17T19:30:58.488Z,2.17
2019-05-17T19:33:25.054Z,2.30
2019-05-17T19:35:51.599Z,1.85
2019-05-17T19:38:18.235Z,1.70
2019-05-17T19:40:44.798Z,2.40
2019-05-17T19:43:11.325Z,1.87
2019-05-17T19:45:37.861Z,2.10
2019-05-17T19:48:04.421Z,2.22
2019-05-17T19:50:31.031Z,2.02
2019-05-17T19:52:57.569Z,1.98
2019-05-17T19:55:24.095Z,2.50
2019-05-17T19:57:50.628Z,2.33
2019-05-17T20:00:18.158Z,2.02
2019-05-17T20:02:45.095Z,2.27
2019-05-17T20:05:11.894Z,2.50
2019-05-17T20:07:39.470Z,2.40
2019-05-17T20:10:08.934Z,2.42
2019-05-17T20:12:35.469Z,2.12
2019-05-17T20:15:16.900Z,2.52
2019-05-17T20:17:37.550Z,2.10
2019-05-17T20:20:05.398Z,1.95
2019-05-17T20:22:33.095Z,1.80
2019-05-17T20:24:59.902Z,2.10
2019-05-17T20:27:26.469Z,2.55
2019-05-17T20:29:53.007Z,2.85
2019-05-17T20:32:19.552Z,3.05
2019-05-17T20:34:46.082Z,2.60
2019-05-17T20:37:12.624Z,3.00
2019-05-17T20:39:39.160Z,2.65
2019-05-17T20:42:05.695Z,2.80
2019-05-17T20:44:32.221Z,2.60
2019-05-17T20:46:58.825Z,2.65
2019-05-17T20:49:26.401Z,2.30
2019-05-17T20:51:53.153Z,2.83
2019-05-17T20:54:19.831Z,2.33
2019-05-17T20:56:46.379Z,2.60
2019-05-17T20:59:14.052Z,2.62
2019-05-17T21:01:40.627Z,2.27
2019-05-17T21:04:07.171Z,2.77
2019-05-17T21:06:33.695Z,3.00
2019-05-17T21:09:00.236Z,4.35
2019-05-17T21:11:26.760Z,4.30
2019-05-17T21:13:53.404Z,3.83
2019-05-17T21:16:19.927Z,4.08
2019-05-17T21:18:46.495Z,3.35
2019-05-17T21:21:13.011Z,3.42
2019-05-17T21:23:39.614Z,3.08
2019-05-17T21:26:08.191Z,3.10
2019-05-17T21:28:34.726Z,2.80
2019-05-17T21:31:01.268Z,2.50
2019-05-17T21:33:27.906Z,2.12
2019-05-17T21:35:54.433Z,2.80
2019-05-17T21:38:20.981Z,2.30
2019-05-17T21:40:47.655Z,2.67
2019-05-17T21:43:14.193Z,2.45
2019-05-17T21:45:40.772Z,2.90
2019-05-17T21:48:07.362Z,2.50
2019-05-17T21:50:33.871Z,2.50
2019-05-17T21:53:00.412Z,2.52
2019-05-17T21:55:28.976Z,2.27
2019-05-17T21:57:55.506Z,2.50
2019-05-17T22:00:50.704Z,2.27
2019-05-17T22:03:17.341Z,2.60
2019-05-17T22:05:43.880Z,2.30
2019-05-17T22:08:10.420Z,2.55
2019-05-17T22:10:36.966Z,2.80
2019-05-17T22:13:03.609Z,2.37
2019-05-17T22:15:30.130Z,2.40
2019-05-17T22:17:56.664Z,2.45
2019-05-17T22:20:23.186Z,2.62
2019-05-17T22:22:49.835Z,2.40
2019-05-17T22:25:16.375Z,2.47
2019-05-17T22:27:42.908Z,2.47
2019-05-17T22:30:09.713Z,2.50
2019-05-17T22:32:36.205Z,2.58
2019-05-17T22:35:04.555Z,2.08
2019-05-17T22:37:31.084Z,2.40
2019-05-17T22:39:57.622Z,2.40
2019-05-17T22:42:25.169Z,2.27
2019-05-17T22:44:51.710Z,2.92
2019-05-17T22:47:18.357Z,2.50
2019-05-17T22:49:44.891Z,2.50
2019-05-17T22:52:11.414Z,2.42
2019-05-17T22:54:38.993Z,2.40
2019-05-17T22:57:05.533Z,2.08
2019-05-17T22:59:32.189Z,2.30
2019-05-17T23:01:58.752Z,2.37
2019-05-17T23:04:25.281Z,2.12
2019-05-17T23:06:51.807Z,2.47
2019-05-17T23:09:18.426Z,2.65
2019-05-17T23:11:45.053Z,2.80
2019-05-17T23:14:11.546Z,2.12
2019-05-17T23:16:50.499Z,2.52
2019-05-17T23:19:08.451Z,2.25
2019-05-17T23:21:35.369Z,1.90
2019-05-17T23:24:02.325Z,2.05
2019-05-17T23:26:28.939Z,1.85
2019-05-17T23:28:55.474Z,2.02
2019-05-17T23:31:23.101Z,1.90
2019-05-17T23:33:49.630Z,2.08
2019-05-17T23:36:16.160Z,2.58
2019-05-17T23:38:42.749Z,3.50
2019-05-17T23:41:09.292Z,3.25
2019-05-17T23:43:35.816Z,3.15
2019-05-17T23:46:02.448Z,2.90
2019-05-17T23:48:28.975Z,3.25
2019-05-17T23:50:55.512Z,2.85
2019-05-17T23:53:22.068Z,3.12
2019-05-17T23:55:48.618Z,3.45
2019-05-17T23:58:17.182Z,3.30
